Time;durP1;ratioP1;P1;durP2;ratioP2;P2;SDS_P1;SDS_P2;PMS_P1;PMS_P2;Temp;Humidity;BMP_temperature;BMP_pressure;BME280_temperature;BME280_humidity;BME280_pressure;Samples;Min_cycle;Max_cycle;Signal;HPM_P1;HPM_P2
2022/12/22 03:26:39;;;;;;;;;;;;;;;7.55;100.00;100022.78;6208272;23;20047;-84
2022/12/22 03:29:05;;;;;;;52.15;24.02;;;;;;;7.51;100.00;100010.63;6207802;23;19908;-85
2022/12/22 03:31:30;;;;;;;93.53;28.58;;;;;;;7.41;100.00;100000.53;6206262;23;20047;-86
2022/12/22 03:33:55;;;;;;;80.07;26.98;;;;;;;7.47;100.00;100015.22;6207893;23;20413;-85
2022/12/22 03:36:20;;;;;;;71.68;26.33;;;;;;;7.42;100.00;100009.31;6205986;23;20411;-85
2022/12/22 03:38:46;;;;;;;58.38;24.17;;;;;;;7.43;100.00;99997.78;6206357;23;20000;-85
2022/12/22 03:46:29;;;;;;;81.80;27.00;;;;;;;7.41;100.00;99995.22;6203404;23;20011;-85
2022/12/22 03:46:40;;;;;;;;;;;;;;;7.55;100.00;100007.75;6207254;23;20019;-86
2022/12/22 03:49:11;;;;;;;97.03;27.53;;;;;;;7.52;100.00;100004.41;6206242;23;19915;-86
2022/12/22 03:51:48;;;;;;;152.35;34.00;;;;;;;7.53;100.00;100000.84;6198807;23;20441;-86
2022/12/22 03:54:20;;;;;;;103.30;29.92;;;;;;;7.54;100.00;100010.50;6203061;23;20056;-85
2022/12/22 03:56:46;;;;;;;52.58;24.65;;;;;;;7.55;100.00;100001.59;6204450;23;20004;-86
2022/12/22 03:59:12;;;;;;;70.82;26.52;;;;;;;7.52;100.00;100007.91;6203811;23;20457;-84
2022/12/22 04:01:45;;;;;;;82.43;26.80;;;;;;;7.49;100.00;99997.50;6202044;23;20658;-85
2022/12/22 04:04:12;;;;;;;143.23;32.55;;;;;;;7.51;100.00;99994.75;6204684;23;20004;-86
2022/12/22 04:06:37;;;;;;;82.40;26.33;;;;;;;7.51;100.00;99995.59;6205797;23;20104;-86
2022/12/22 04:09:03;;;;;;;157.35;33.45;;;;;;;7.38;100.00;99976.84;6217724;23;20017;-84
2022/12/22 04:14:12;;;;;;;;;;;;;;;7.56;100.00;99984.78;6207736;23;20028;-85
2022/12/22 04:16:38;;;;;;;80.60;27.98;;;;;;;7.52;100.00;99985.88;6207908;23;19916;-86
2022/12/22 04:19:05;;;;;;;83.95;28.08;;;;;;;7.54;100.00;99981.38;6207946;23;20012;-85
2022/12/22 04:21:30;;;;;;;66.53;26.38;;;;;;;7.54;100.00;99976.91;6204340;23;20005;-84
2022/12/22 04:23:55;;;;;;;75.53;27.40;;;;;;;7.52;100.00;99972.63;6204886;23;20252;-85
2022/12/22 04:26:23;;;;;;;65.38;25.98;;;;;;;7.50;100.00;99970.06;6204505;23;20358;-85
2022/12/22 04:28:49;;;;;;;98.38;30.95;;;;;;;7.43;100.00;99969.50;6203805;23;20028;-86
2022/12/22 04:31:15;;;;;;;124.50;32.22;;;;;;;7.37;100.00;99969.84;6204847;23;20031;-85
2022/12/22 04:33:40;;;;;;;86.80;27.83;;;;;;;7.41;100.00;99978.50;6205172;23;20075;-85
2022/12/22 04:36:06;;;;;;;63.90;25.70;;;;;;;7.46;100.00;99979.09;6203025;23;20009;-85
2022/12/22 04:38:31;;;;;;;86.30;27.90;;;;;;;7.33;100.00;99973.59;6205169;23;20059;-85
2022/12/22 04:40:56;;;;;;;71.78;26.83;;;;;;;7.32;100.00;99963.09;6203708;23;20016;-85
2022/12/22 04:43:21;;;;;;;90.90;28.00;;;;;;;7.29;100.00;99960.59;6203604;23;20564;-85
2022/12/22 04:45:52;;;;;;;57.50;23.88;;;;;;;7.41;100.00;99997.03;6205188;23;20028;-85
2022/12/22 04:48:17;;;;;;;95.28;25.45;;;;;;;7.34;100.00;99993.81;6204690;23;20005;-84
2022/12/22 04:50:42;;;;;;;65.97;25.10;;;;;;;7.38;100.00;100003.31;6202111;23;20004;-84
2022/12/22 04:53:08;;;;;;;87.03;26.50;;;;;;;7.31;100.00;99983.38;6204433;23;20008;-85
2022/12/22 04:55:33;;;;;;;94.78;27.55;;;;;;;7.31;100.00;99982.53;6203799;23;20008;-86
2022/12/22 04:57:58;;;;;;;127.25;30.25;;;;;;;7.34;100.00;99995.63;6205692;23;20043;-86
2022/12/22 05:00:24;;;;;;;72.13;26.20;;;;;;;7.34;100.00;99995.63;6203557;23;20023;-85
2022/12/22 05:02:50;;;;;;;90.38;26.45;;;;;;;7.33;100.00;100001.84;6206093;23;20012;-85
2022/12/22 05:05:16;;;;;;;92.70;26.48;;;;;;;7.29;100.00;100001.16;6204194;23;20004;-84
2022/12/22 05:07:42;;;;;;;73.50;24.20;;;;;;;7.25;100.00;99996.94;6205264;23;20009;-85
2022/12/22 05:10:08;;;;;;;72.47;25.30;;;;;;;7.30;100.00;100008.16;6205165;23;20014;-85
2022/12/22 05:15:17;;;;;;;73.43;25.33;;;;;;;7.24;100.00;99992.59;6206625;23;20047;-85
2022/12/22 05:17:42;;;;;;;92.90;27.63;;;;;;;7.28;100.00;100001.25;6207025;23;20005;-85
2022/12/22 05:20:08;;;;;;;107.90;28.73;;;;;;;7.26;100.00;99987.22;6205503;23;20111;-85
2022/12/22 05:22:33;;;;;;;105.40;27.50;;;;;;;7.27;100.00;99986.28;6206276;23;20242;-86
2022/12/22 05:24:59;;;;;;;73.28;25.08;;;;;;;7.14;100.00;99967.50;6207108;23;20012;-86
2022/12/22 05:27:24;;;;;;;64.88;23.58;;;;;;;7.24;100.00;99982.84;6205414;23;20004;-86
2022/12/22 05:29:49;;;;;;;73.35;24.30;;;;;;;7.15;100.00;99966.59;6205958;23;20012;-86
2022/12/22 05:32:14;;;;;;;84.47;25.90;;;;;;;7.15;100.00;99971.88;6203177;23;20389;-85
2022/12/22 05:34:40;;;;;;;109.13;27.48;;;;;;;7.11;100.00;99972.97;6205385;23;20005;-84
2022/12/22 05:37:05;;;;;;;71.05;23.70;;;;;;;7.11;100.00;99976.47;6206041;23;20004;-85
2022/12/22 05:39:30;;;;;;;69.47;23.48;;;;;;;7.05;100.00;99979.41;6203128;23;20016;-85
2022/12/22 05:41:56;;;;;;;65.97;23.77;;;;;;;7.04;100.00;100003.31;6204902;23;20004;-85
2022/12/22 05:44:21;;;;;;;66.50;23.55;;;;;;;7.02;100.00;99999.88;6203648;23;20004;-85
2022/12/22 05:46:50;;;;;;;53.88;21.23;;;;;;;7.00;100.00;100013.19;6202973;23;20004;-85
2022/12/22 05:49:15;;;;;;;56.75;21.40;;;;;;;6.98;100.00;100007.97;6204769;23;20036;-85
2022/12/22 05:51:40;;;;;;;54.67;21.77;;;;;;;6.99;100.00;100009.69;6204484;23;20004;-84
2022/12/22 05:54:05;;;;;;;63.67;22.10;;;;;;;7.15;100.00;100027.47;6205691;23;20032;-84
2022/12/22 05:56:31;;;;;;;62.78;23.25;;;;;;;7.27;100.00;100028.63;6204584;23;20034;-86
2022/12/22 05:58:56;;;;;;;72.03;26.63;;;;;;;7.34;100.00;100030.88;6206483;23;20326;-85
2022/12/22 06:01:21;;;;;;;86.20;27.65;;;;;;;7.41;100.00;100023.50;6203147;23;20012;-86
2022/12/22 06:03:46;;;;;;;85.65;28.60;;;;;;;7.38;100.00;100028.94;6206083;23;20024;-86
2022/12/22 06:06:12;;;;;;;89.60;29.38;;;;;;;7.47;100.00;100049.66;6206768;23;20020;-85
2022/12/22 06:08:37;;;;;;;86.88;28.35;;;;;;;7.40;100.00;100032.38;6205069;23;20350;-86
2022/12/22 06:11:03;;;;;;;93.28;29.27;;;;;;;7.46;100.00;100054.09;6204792;23;20124;-85
2022/12/22 06:13:28;;;;;;;99.78;31.23;;;;;;;7.48;100.00;100054.91;6204567;23;20083;-85
2022/12/22 06:15:53;;;;;;;94.05;30.45;;;;;;;7.53;100.00;100059.09;6205603;23;20321;-85
2022/12/22 06:18:18;;;;;;;81.35;29.30;;;;;;;7.55;100.00;100062.50;6203467;23;20508;-85
2022/12/22 06:20:45;;;;;;;81.32;29.35;;;;;;;7.48;100.00;100057.53;6204493;23;20017;-86
2022/12/22 06:23:10;;;;;;;93.88;29.00;;;;;;;7.54;100.00;100071.41;6205101;23;20004;-86
2022/12/22 06:25:36;;;;;;;78.50;27.92;;;;;;;7.57;100.00;100081.84;6205150;23;20219;-85
2022/12/22 06:28:01;;;;;;;85.88;30.55;;;;;;;7.60;100.00;100086.97;6206569;23;20035;-85
2022/12/22 06:30:26;;;;;;;108.30;31.65;;;;;;;7.58;100.00;100087.03;6201394;23;20160;-84
2022/12/22 06:32:52;;;;;;;84.85;29.25;;;;;;;7.59;100.00;100091.41;6208385;23;20005;-86
2022/12/22 06:35:17;;;;;;;100.30;31.45;;;;;;;7.56;100.00;100090.69;6211074;23;20005;-87
2022/12/22 06:37:42;;;;;;;102.65;31.50;;;;;;;7.61;100.00;100105.44;6211170;23;20008;-85
2022/12/22 06:40:08;;;;;;;112.35;33.67;;;;;;;7.59;100.00;100106.44;6213813;23;20035;-86
2022/12/22 06:45:18;;;;;;;105.35;32.55;;;;;;;7.62;100.00;100116.88;6219683;23;20047;-85
2022/12/22 06:47:43;;;;;;;116.20;33.97;;;;;;;7.55;100.00;100118.97;6221271;23;20012;-86
2022/12/22 06:50:08;;;;;;;107.00;32.92;;;;;;;7.55;100.00;100128.72;6222736;23;20088;-87
2022/12/22 06:52:34;;;;;;;111.25;33.38;;;;;;;7.55;100.00;100126.06;6222462;23;20211;-85
2022/12/22 06:55:01;;;;;;;98.82;33.53;;;;;;;7.58;100.00;100124.13;6216414;23;20005;-86
2022/12/22 06:57:27;;;;;;;104.32;35.15;;;;;;;7.48;100.00;100123.72;6203111;23;20008;-86
2022/12/22 06:59:52;;;;;;;112.03;35.88;;;;;;;7.55;100.00;100131.34;6203894;23;20349;-85
2022/12/22 07:02:17;;;;;;;125.95;37.72;;;;;;;7.54;100.00;100137.59;6204187;23;20001;-86
2022/12/22 07:04:44;;;;;;;128.95;39.45;;;;;;;7.59;100.00;100154.09;6203061;23;20016;-86
2022/12/22 07:07:09;;;;;;;140.05;42.22;;;;;;;7.53;100.00;100159.72;6202959;23;20025;-87
2022/12/22 07:09:34;;;;;;;139.73;42.90;;;;;;;7.54;100.00;100167.59;6204838;23;20409;-86
2022/12/22 07:12:00;;;;;;;149.35;43.30;;;;;;;7.44;100.00;100151.31;6206058;23;20010;-86
2022/12/22 07:14:25;;;;;;;163.82;43.53;;;;;;;7.53;100.00;100178.25;6205761;23;20012;-87
2022/12/22 07:16:50;;;;;;;151.00;44.03;;;;;;;7.49;100.00;100182.84;6205619;23;20024;-87
2022/12/22 07:19:16;;;;;;;133.10;42.80;;;;;;;7.52;100.00;100192.41;6204015;23;20012;-86
2022/12/22 07:21:41;;;;;;;134.65;41.85;;;;;;;7.51;100.00;100203.94;6204575;23;20008;-87
2022/12/22 07:24:06;;;;;;;118.50;40.92;;;;;;;7.45;100.00;100198.00;6206898;23;20000;-87
2022/12/22 07:26:32;;;;;;;131.82;43.50;;;;;;;7.42;100.00;100198.16;6206847;23;20075;-86
2022/12/22 07:28:57;;;;;;;126.05;41.67;;;;;;;7.45;100.00;100198.00;6206890;23;20001;-87
2022/12/22 07:31:23;;;;;;;123.55;41.50;;;;;;;7.43;100.00;100197.22;6204659;23;20012;-86
2022/12/22 07:33:48;;;;;;;124.72;41.65;;;;;;;7.31;100.00;100186.34;6206529;23;20028;-88
2022/12/22 07:36:17;;;;;;;120.82;41.42;;;;;;;7.42;100.00;100199.94;6206284;23;20556;-87
2022/12/22 07:38:45;;;;;;;122.40;44.53;;;;;;;7.34;100.00;100192.38;6206926;23;20008;-89
2022/12/22 07:43:58;;;;;;;127.57;42.33;;;;;;;7.19;100.00;100199.25;6207968;23;20504;-91
2022/12/22 07:46:26;;;;;;;131.27;43.80;;;;;;;7.20;100.00;100213.34;6207030;23;20012;-87
2022/12/22 07:51:37;;;;;;;137.85;44.92;;;;;;;7.06;100.00;100223.72;6208319;23;20047;-88
2022/12/22 07:54:08;;;;;;;122.38;45.35;;;;;;;6.95;100.00;100214.50;6210374;23;20015;-88
2022/12/22 07:56:33;;;;;;;131.27;46.92;;;;;;;7.03;100.00;100221.22;6210313;23;20086;-89
2022/12/22 07:58:59;;;;;;;134.82;46.38;;;;;;;6.92;100.00;100208.47;6209180;23;20004;-89
2022/12/22 08:01:24;;;;;;;140.52;46.83;;;;;;;6.99;100.00;100233.72;6205468;23;20008;-88
2022/12/22 08:03:49;;;;;;;148.32;49.45;;;;;;;7.06;100.00;100248.38;6208323;23;20004;-86
2022/12/22 08:06:15;;;;;;;160.65;49.72;;;;;;;7.10;100.00;100257.91;6207560;23;20025;-86
2022/12/22 08:08:40;;;;;;;151.45;46.22;;;;;;;7.08;100.00;100248.31;6206232;23;20382;-87
2022/12/22 08:11:05;;;;;;;150.50;49.13;;;;;;;7.17;100.00;100269.91;6205588;23;20017;-87
2022/12/22 08:13:31;;;;;;;144.55;48.70;;;;;;;7.19;100.00;100272.50;6205428;23;20008;-87
2022/12/22 08:16:08;;;;;;;177.68;52.72;;;;;;;7.13;100.00;100275.44;6206792;23;20354;-86
2022/12/22 08:18:35;;;;;;;130.98;47.08;;;;;;;7.08;100.00;100283.59;6207203;23;20419;-88
2022/12/22 08:21:01;;;;;;;158.73;49.63;;;;;;;7.10;100.00;100300.22;6204789;23;20011;-88
2022/12/22 08:23:26;;;;;;;138.43;49.13;;;;;;;7.12;100.00;100302.84;6206870;23;20389;-87
2022/12/22 08:25:58;;;;;;;165.15;50.17;;;;;;;7.16;100.00;100302.63;6208160;23;20005;-87
2022/12/22 08:28:23;;;;;;;147.38;49.80;;;;;;;7.18;100.00;100308.69;6212660;23;20013;-87
2022/12/22 08:30:49;;;;;;;166.65;50.53;;;;;;;7.08;100.00;100301.25;6215297;23;20013;-87
2022/12/22 08:33:14;;;;;;;175.10;51.22;;;;;;;7.16;100.00;100315.84;6215585;23;20035;-87
2022/12/22 08:35:40;;;;;;;162.95;51.05;;;;;;;7.21;100.00;100320.94;6211452;23;20000;-86
2022/12/22 08:38:06;;;;;;;139.95;50.10;;;;;;;7.13;100.00;100302.75;6205411;23;20009;-86
2022/12/22 08:40:32;;;;;;;164.45;49.67;;;;;;;7.24;100.00;100340.19;6202257;23;20004;-88
2022/12/22 08:43:05;;;;;;;141.15;50.28;;;;;;;7.19;100.00;100336.00;6203885;23;20005;-87
2022/12/22 08:45:31;;;;;;;145.75;53.25;;;;;;;7.16;100.00;100331.72;6202802;23;20457;-87
2022/12/22 08:47:56;;;;;;;143.88;50.28;;;;;;;7.22;100.00;100352.63;6207226;23;20012;-86
2022/12/22 08:50:22;;;;;;;129.77;46.70;;;;;;;7.26;100.00;100356.00;6202352;23;20006;-86
2022/12/22 08:52:47;;;;;;;133.13;47.63;;;;;;;7.28;100.00;100370.03;6225109;23;19988;-88
2022/12/22 08:55:16;;;;;;;133.15;49.08;;;;;;;7.30;100.00;100378.75;6229358;22;20008;-87
2022/12/22 08:57:49;;;;;;;132.48;49.65;;;;;;;7.22;100.00;100383.53;6212526;23;20004;-87
2022/12/22 09:00:16;;;;;;;115.05;44.25;;;;;;;7.05;100.00;100365.75;6216654;23;20008;-88
2022/12/22 09:02:42;;;;;;;123.13;46.50;;;;;;;7.18;100.00;100395.19;6214643;23;20004;-87
2022/12/22 09:05:07;;;;;;;117.32;46.72;;;;;;;7.14;100.00;100410.31;6219298;23;20068;-87
2022/12/22 09:07:33;;;;;;;130.55;49.08;;;;;;;7.04;100.00;100397.56;6223060;23;20047;-87
2022/12/22 09:09:58;;;;;;;122.20;46.45;;;;;;;7.02;100.00;100404.72;6220628;23;20013;-88
2022/12/22 09:12:23;;;;;;;113.47;47.55;;;;;;;6.92;100.00;100401.59;6210138;23;20259;-87
2022/12/22 09:14:49;;;;;;;111.75;46.28;;;;;;;6.72;100.00;100392.72;6210346;23;20011;-87
2022/12/22 09:17:14;;;;;;;107.07;45.25;;;;;;;6.69;100.00;100402.59;6209026;23;20008;-88
2022/12/22 09:19:39;;;;;;;94.60;42.15;;;;;;;6.62;100.00;100406.41;6208633;23;20028;-89
2022/12/22 09:22:04;;;;;;;106.75;44.95;;;;;;;6.58;100.00;100407.47;6209419;23;20058;-88
2022/12/22 09:24:30;;;;;;;105.45;43.28;;;;;;;6.55;100.00;100413.72;6208541;23;20039;-87
2022/12/22 09:26:55;;;;;;;115.85;44.78;;;;;;;6.47;100.00;100406.09;6208543;23;19997;-87
2022/12/22 09:29:20;;;;;;;111.00;44.28;;;;;;;6.38;100.00;100408.25;6206492;23;20032;-87
2022/12/22 09:31:46;;;;;;;97.45;43.25;;;;;;;6.26;100.00;100399.03;6209985;23;20005;-88
2022/12/22 09:34:11;;;;;;;109.63;44.60;;;;;;;6.38;100.00;100422.34;6209308;23;20004;-90
2022/12/22 09:36:39;;;;;;;102.30;44.63;;;;;;;6.38;100.00;100432.91;6209236;23;20008;-86
2022/12/22 09:39:07;;;;;;;101.50;45.33;;;;;;;6.40;100.00;100439.00;6208907;23;20378;-87
2022/12/22 09:41:45;;;;;;;111.80;48.42;;;;;;;6.44;100.00;100434.47;6207342;23;20004;-88
2022/12/22 09:44:26;;;;;;;113.75;50.33;;;;;;;6.51;100.00;100432.41;6206883;23;20330;-86
2022/12/22 09:46:54;;;;;;;115.78;51.40;;;;;;;6.71;100.00;100437.75;6202724;23;20399;-87
2022/12/22 09:49:21;;;;;;;120.85;54.53;;;;;;;6.86;100.00;100444.22;6205473;23;20434;-87
2022/12/22 09:51:51;;;;;;;135.02;58.13;;;;;;;6.85;100.00;100432.75;6208312;23;20008;-87
2022/12/22 09:54:16;;;;;;;131.07;56.60;;;;;;;7.03;100.00;100454.94;6206701;23;20079;-86
2022/12/22 09:56:42;;;;;;;115.18;54.25;;;;;;;6.98;100.00;100449.84;6205238;23;20039;-86
2022/12/22 09:59:19;;;;;;;105.05;49.90;;;;;;;6.82;100.00;100451.41;6206934;23;20015;-87
2022/12/22 10:01:53;;;;;;;112.43;50.95;;;;;;;6.88;100.00;100459.06;6207264;23;20032;-87
2022/12/22 10:04:38;;;;;;;120.72;53.65;;;;;;;7.06;100.00;100475.09;6206963;23;20032;-87
2022/12/22 10:07:03;;;;;;;112.93;51.70;;;;;;;7.11;100.00;100462.56;6206542;23;20087;-87
2022/12/22 10:09:30;;;;;;;101.70;49.53;;;;;;;6.95;100.00;100454.41;6205950;23;20028;-88
2022/12/22 10:11:58;;;;;;;98.38;48.47;;;;;;;7.05;100.00;100473.38;6208677;23;20513;-88
2022/12/22 10:14:30;;;;;;;92.97;47.33;;;;;;;6.91;100.00;100451.00;6209582;23;20020;-87
2022/12/22 10:17:14;;;;;;;90.13;44.47;;;;;;;7.04;100.00;100482.25;6206957;23;20334;-86
2022/12/22 10:19:40;;;;;;;86.90;42.38;;;;;;;6.93;100.00;100482.69;6204020;23;20159;-86
2022/12/22 10:22:31;;;;;;;87.15;41.75;;;;;;;6.94;100.00;100477.34;6207116;23;20004;-88
2022/12/22 10:24:59;;;;;;;78.45;39.10;;;;;;;6.88;100.00;100480.25;6206398;23;20710;-86
2022/12/22 10:27:29;;;;;;;72.05;37.10;;;;;;;6.90;100.00;100480.19;6208517;23;20490;-88
2022/12/22 10:30:21;;;;;;;84.68;39.30;;;;;;;7.15;100.00;100475.59;6206615;23;20004;-88
2022/12/22 10:33:02;;;;;;;76.72;37.90;;;;;;;7.34;100.00;100482.72;6208845;23;20004;-88
2022/12/22 10:35:42;;;;;;;65.57;34.33;;;;;;;7.44;100.00;100482.28;6215857;23;20035;-87
2022/12/22 10:38:21;;;;;;;56.58;29.58;;;;;;;7.38;100.00;100479.03;6216786;23;19993;-87
2022/12/22 10:40:49;;;;;;;47.65;25.35;;;;;;;7.21;100.00;100490.34;6218517;23;20009;-88
2022/12/22 10:43:21;;;;;;;45.35;24.48;;;;;;;7.07;100.00;100484.78;6219174;23;20641;-88
2022/12/22 10:45:47;;;;;;;49.92;26.42;;;;;;;7.14;100.00;100486.22;6218038;23;20058;-89
2022/12/22 10:48:13;;;;;;;48.70;26.95;;;;;;;7.21;100.00;100491.19;6215949;23;20005;-88
2022/12/22 10:50:47;;;;;;;47.50;26.00;;;;;;;7.10;100.00;100489.91;6218447;23;20438;-89
2022/12/22 10:53:13;;;;;;;53.15;26.25;;;;;;;7.12;100.00;100490.72;6213841;23;20007;-88
2022/12/22 10:55:38;;;;;;;51.92;27.23;;;;;;;7.17;100.00;100491.41;6216582;23;20103;-88
2022/12/22 10:58:09;;;;;;;49.47;27.27;;;;;;;7.16;100.00;100502.91;6218722;23;20008;-88
2022/12/22 11:00:36;;;;;;;49.25;26.30;;;;;;;7.01;100.00;100491.16;6213644;23;20015;-88
2022/12/22 11:03:04;;;;;;;47.95;26.27;;;;;;;6.96;100.00;100485.22;6212000;23;20061;-88
2022/12/22 11:05:31;;;;;;;47.83;27.10;;;;;;;7.07;100.00;100505.94;6209615;23;20027;-88
2022/12/22 11:08:04;;;;;;;50.65;29.30;;;;;;;7.10;100.00;100505.81;6203661;23;20255;-88
2022/12/22 11:10:38;;;;;;;48.97;29.88;;;;;;;7.04;100.00;100512.22;6207554;23;20011;-88
2022/12/22 11:13:29;;;;;;;47.03;31.42;;;;;;;6.93;100.00;100510.00;6206704;23;20119;-88
2022/12/22 11:16:12;;;;;;;52.88;32.80;;;;;;;6.83;100.00;100507.81;6209089;23;20014;-88
2022/12/22 11:19:02;;;;;;;49.22;30.17;;;;;;;6.78;100.00;100508.00;6209675;23;20008;-88
2022/12/22 11:21:39;;;;;;;48.95;30.77;;;;;;;6.88;100.00;100504.03;6195731;23;20004;-87
2022/12/22 11:24:33;;;;;;;45.95;29.90;;;;;;;6.92;100.00;100516.22;6223220;23;20061;-87
2022/12/22 11:27:16;;;;;;;52.88;31.48;;;;;;;7.15;100.00;100514.44;6227138;23;20015;-87
2022/12/22 11:30:03;;;;;;;49.80;30.27;;;;;;;7.24;100.00;100514.03;6227529;23;20097;-88
2022/12/22 11:32:35;;;;;;;47.35;31.48;;;;;;;7.23;100.00;100528.19;6210614;23;20012;-88
2022/12/22 11:35:10;;;;;;;49.28;31.73;;;;;;;7.22;100.00;100519.38;6211073;23;20000;-88
2022/12/22 11:37:52;;;;;;;50.88;32.42;;;;;;;7.31;100.00;100531.38;6209650;23;20001;-88
2022/12/22 11:40:31;;;;;;;51.95;33.17;;;;;;;7.30;100.00;100516.41;6210761;23;20009;-88
2022/12/22 11:43:12;;;;;;;51.58;32.35;;;;;;;7.45;100.00;100531.66;6210263;23;20004;-88
2022/12/22 11:45:47;;;;;;;47.92;32.47;;;;;;;7.52;100.00;100539.31;6207495;23;20008;-88
2022/12/22 11:48:34;;;;;;;48.33;32.95;;;;;;;7.47;100.00;100537.72;6208425;23;20377;-87
2022/12/22 11:51:15;;;;;;;49.13;33.58;;;;;;;7.52;100.00;100528.72;6209086;23;20461;-87
2022/12/22 11:54:06;;;;;;;47.08;31.55;;;;;;;7.53;100.00;100530.47;6209698;23;20001;-88
2022/12/22 11:56:37;;;;;;;49.92;33.25;;;;;;;7.46;100.00;100538.66;6208959;23;20004;-89
2022/12/22 11:59:23;;;;;;;45.08;32.35;;;;;;;7.43;100.00;100535.28;6207977;23;20001;-88
2022/12/22 12:02:12;;;;;;;49.78;32.47;;;;;;;7.41;100.00;100529.22;6208377;23;20038;-86
2022/12/22 12:04:37;;;;;;;46.38;32.03;;;;;;;7.44;100.00;100527.28;6206201;23;20016;-88
2022/12/22 12:07:19;;;;;;;48.70;32.05;;;;;;;7.48;100.00;100522.69;6206351;23;19988;-88
2022/12/22 12:10:12;;;;;;;47.35;33.15;;;;;;;7.45;100.00;100523.72;6208276;23;20011;-88
2022/12/22 12:13:02;;;;;;;44.50;31.40;;;;;;;7.37;100.00;100514.38;6207011;23;20031;-88
2022/12/22 12:15:45;;;;;;;48.40;32.25;;;;;;;7.40;100.00;100509.81;6203976;23;20254;-88
2022/12/22 12:18:42;;;;;;;44.95;31.13;;;;;;;7.47;100.00;100497.16;6228069;23;20056;-88
2022/12/22 12:21:07;;;;;;;32.55;21.98;;;;;;;7.46;100.00;100501.59;6217927;23;20009;-88
2022/12/22 12:24:03;;;;;;;30.52;21.63;;;;;;;7.44;100.00;100492.88;6206828;23;20013;-87
2022/12/22 12:26:43;;;;;;;35.13;21.17;;;;;;;7.45;100.00;100499.88;6208742;23;20004;-88
2022/12/22 12:29:17;;;;;;;30.15;20.80;;;;;;;7.45;100.00;100484.00;6210974;23;20012;-86
2022/12/22 12:31:55;;;;;;;28.08;20.20;;;;;;;7.59;100.00;100487.81;6211569;23;20015;-87
2022/12/22 12:34:21;;;;;;;32.67;21.60;;;;;;;7.56;100.00;100472.06;6208719;23;20027;-87
2022/12/22 12:37:16;;;;;;;29.50;20.55;;;;;;;7.64;100.00;100477.88;6206637;23;20004;-85
2022/12/22 12:40:06;;;;;;;28.63;19.58;;;;;;;7.65;100.00;100475.19;6208183;23;20039;-86
2022/12/22 12:42:44;;;;;;;31.98;21.05;;;;;;;7.63;100.00;100481.47;6209898;23;20622;-84
2022/12/22 12:45:42;;;;;;;28.63;20.33;;;;;;;7.58;100.00;100475.50;6206944;23;20357;-85
2022/12/22 12:48:19;;;;;;;36.33;23.02;;;;;;;7.54;100.00;100479.22;6206488;23;20304;-86
2022/12/22 12:50:49;;;;;;;47.70;24.17;;;;;;;7.44;100.00;100473.44;6209470;23;20031;-84
2022/12/22 12:53:16;;;;;;;36.13;22.25;;;;;;;7.48;100.00;100481.22;6206725;23;20004;-82
2022/12/22 12:55:53;;;;;;;37.55;22.83;;;;;;;7.57;100.00;100477.31;6208835;23;20382;-83
2022/12/22 12:58:36;;;;;;;32.88;22.60;;;;;;;7.65;100.00;100471.63;6206013;23;20059;-80
2022/12/22 13:01:08;;;;;;;35.58;23.73;;;;;;;7.60;100.00;100463.03;6205810;23;20009;-86
2022/12/22 13:03:40;;;;;;;34.30;21.45;;;;;;;7.62;100.00;100474.44;6204401;23;20096;-88
2022/12/22 13:06:30;;;;;;;30.27;21.55;;;;;;;7.54;100.00;100466.84;6207634;23;19996;-86
2022/12/22 13:09:05;;;;;;;31.92;22.80;;;;;;;7.59;100.00;100471.94;6209874;23;20598;-86
2022/12/22 13:11:33;;;;;;;34.38;23.15;;;;;;;7.62;100.00;100477.09;6209112;23;20012;-88
2022/12/22 13:13:59;;;;;;;33.30;22.65;;;;;;;7.64;100.00;100469.94;6210204;23;20370;-86
2022/12/22 13:16:27;;;;;;;31.83;23.33;;;;;;;7.68;100.00;100475.00;6209606;23;20005;-86
2022/12/22 13:18:57;;;;;;;31.98;22.35;;;;;;;7.59;100.00;100461.34;6211086;23;20297;-86
2022/12/22 13:21:44;;;;;;;36.63;22.92;;;;;;;7.59;100.00;100477.22;6207812;23;20010;-86
2022/12/22 13:24:20;;;;;;;36.30;23.33;;;;;;;7.55;100.00;100480.94;6209454;23;20011;-86
2022/12/22 13:26:48;;;;;;;39.13;23.73;;;;;;;7.50;100.00;100473.19;6211657;23;19996;-87
2022/12/22 13:29:45;;;;;;;32.35;23.00;;;;;;;7.48;100.00;100478.56;6208115;23;20015;-86
2022/12/22 13:32:29;;;;;;;33.30;23.60;;;;;;;7.49;100.00;100485.56;6205239;23;20012;-85
2022/12/22 13:35:19;;;;;;;32.72;23.17;;;;;;;7.43;100.00;100479.69;6212305;23;20001;-86
2022/12/22 13:37:46;;;;;;;37.45;25.70;;;;;;;7.48;100.00;100469.75;6214598;23;20025;-86
2022/12/22 13:40:19;;;;;;;42.05;24.83;;;;;;;7.56;100.00;100472.06;6214159;23;20342;-88
2022/12/22 13:42:46;;;;;;;35.22;24.17;;;;;;;7.53;100.00;100461.63;6216612;23;20015;-86
2022/12/22 13:45:36;;;;;;;39.03;23.83;;;;;;;7.53;100.00;100461.63;6219301;23;20031;-86
2022/12/22 13:48:25;;;;;;;53.72;26.20;;;;;;;7.58;100.00;100457.81;6222515;23;20016;-87
2022/12/22 13:50:57;;;;;;;35.78;23.38;;;;;;;7.60;100.00;100450.66;6220615;23;20009;-84
2022/12/22 13:53:38;;;;;;;28.85;22.05;;;;;;;7.65;100.00;100447.81;6217931;23;20008;-86
2022/12/22 13:56:12;;;;;;;28.13;20.73;;;;;;;7.56;100.00;100425.25;6225735;23;20009;-85
2022/12/22 13:58:43;;;;;;;26.20;16.88;;;;;;;7.62;100.00;100437.38;6221034;23;20004;-86
2022/12/22 14:01:09;;;;;;;24.05;17.15;;;;;;;7.58;100.00;100439.28;6222641;23;20015;-86
2022/12/22 14:03:35;;;;;;;19.65;14.48;;;;;;;7.54;100.00;100437.69;6213115;23;20016;-86
2022/12/22 14:06:00;;;;;;;20.67;14.98;;;;;;;7.47;100.00;100429.16;6213075;23;19997;-86
2022/12/22 14:08:25;;;;;;;22.02;14.70;;;;;;;7.37;100.00;100419.91;6210212;23;20024;-86
2022/12/22 14:10:53;;;;;;;14.88;13.25;;;;;;;7.37;100.00;100434.94;6209360;23;20465;-86
2022/12/22 14:13:23;;;;;;;19.67;14.90;;;;;;;7.31;100.00;100436.06;6206319;23;20005;-87
2022/12/22 14:15:58;;;;;;;16.00;13.23;;;;;;;7.21;100.00;100418.88;6208128;23;20401;-86
2022/12/22 14:18:25;;;;;;;16.70;13.75;;;;;;;7.19;100.00;100428.66;6206844;23;20036;-86
2022/12/22 14:20:51;;;;;;;14.88;13.38;;;;;;;7.11;100.00;100417.56;6209376;23;20009;-85
2022/12/22 14:23:24;;;;;;;17.40;14.65;;;;;;;7.16;100.00;100429.66;6207983;23;20028;-86
2022/12/22 14:25:52;;;;;;;17.85;14.73;;;;;;;7.06;100.00;100420.38;6211038;23;20005;-88
2022/12/22 14:28:49;;;;;;;16.20;14.50;;;;;;;6.98;100.00;100422.50;6210429;23;20485;-88
2022/12/22 14:31:15;;;;;;;19.50;15.52;;;;;;;6.91;100.00;100413.97;6209301;23;20046;-83
2022/12/22 14:33:51;;;;;;;22.45;16.67;;;;;;;6.85;100.00;100406.28;6206345;23;20004;-85
2022/12/22 14:36:34;;;;;;;22.00;16.58;;;;;;;6.82;100.00;100403.78;6205231;23;20339;-86
2022/12/22 14:38:59;;;;;;;24.65;18.65;;;;;;;6.86;100.00;100399.22;6206653;23;20032;-84
2022/12/22 14:41:40;;;;;;;26.08;18.83;;;;;;;6.81;100.00;100396.75;6201677;23;20489;-85
2022/12/22 14:44:13;;;;;;;24.30;17.15;;;;;;;6.76;100.00;100385.53;6205479;23;20131;-85
2022/12/22 14:46:40;;;;;;;23.73;17.75;;;;;;;6.83;100.00;100391.41;6205032;23;20012;-85
2022/12/22 14:49:13;;;;;;;24.33;17.88;;;;;;;6.74;100.00;100382.09;6204305;23;20008;-85
2022/12/22 14:51:38;;;;;;;19.95;16.70;;;;;;;6.78;100.00;100382.84;6204607;23;20012;-85
2022/12/22 14:54:04;;;;;;;24.02;17.95;;;;;;;6.68;100.00;100369.13;6208357;23;20064;-85
2022/12/22 14:56:29;;;;;;;26.45;18.13;;;;;;;6.81;100.00;100383.53;6203735;23;20040;-85
2022/12/22 14:59:24;;;;;;;26.45;18.65;;;;;;;6.79;100.00;100380.09;6203843;23;20070;-84
2022/12/22 15:02:20;;;;;;;25.25;18.48;;;;;;;6.78;100.00;100372.25;6205001;23;20027;-84
2022/12/22 15:04:45;;;;;;;24.00;18.67;;;;;;;6.78;100.00;100370.47;6216358;23;20087;-84
2022/12/22 15:07:19;;;;;;;30.20;20.27;;;;;;;6.80;100.00;100375.69;6226346;23;20192;-84